In Rescue
 
Open Full Screen Window  High Contrast Mode
Wind Gusting 00 knots
04
September 21, 2019 8:25 AM CDT
Weather Information
Wind Direction
  160 °
Wind Speed
  04 kt (5 mph)
Wind Gust
  00 kt (0 mph)
Altimeter
29.67 in
Visibility
10 SM
Temperature
21° C
70° F
Dewpoint
19° C
66° F
Humidity
88%
1hr Rain Fall
00.00 in.
24hr Rain Fall
00.01 in.
Sky Condition
Clear
VFR

METAR KVVV 211325Z AUTO 16004KT 10SM CLR 21/19 A2967 RMK AO2 LTG DSNT NE THRU SE

FAA Disclaimer: The data displayed is for advisory purposes only and is not to be used for flight planning or operations.